Time;durP1;ratioP1;P1;durP2;ratioP2;P2;SDS_P1;SDS_P2;PMS_P1;PMS_P2;Temp;Humidity;BMP_temperature;BMP_pressure;BME280_temperature;BME280_humidity;BME280_pressure;Samples;Min_cycle;Max_cycle;Signal;HPM_P1;HPM_P2
2022/10/29 00:01:54;;;;;;;;;;;17.10;82.70;;;;;;4992104;28;19937;-89
2022/10/29 00:04:22;;;;;;;;;;;17.10;82.80;;;;;;4989504;28;20375;-89
2022/10/29 00:07:08;;;;;;;;;;;17.20;82.80;;;;;;5000270;28;19929;-89
2022/10/29 00:09:36;;;;;;;;;;;17.20;82.80;;;;;;4991105;28;19913;-89
2022/10/29 00:12:14;;;;;;;;;;;17.10;82.70;;;;;;4991610;28;19914;-88
2022/10/29 00:14:57;;;;;;;;;;;17.10;82.80;;;;;;4984911;28;19914;-89
2022/10/29 00:17:38;;;;;;;;;;;17.10;82.70;;;;;;4992030;28;19914;-89
2022/10/29 00:20:37;;;;;;;;;;;17.10;82.70;;;;;;4989636;28;19917;-89
2022/10/29 00:23:03;;;;;;;;;;;17.10;82.90;;;;;;4982938;28;19921;-89
2022/10/29 00:25:28;;;;;;;;;;;17.10;82.80;;;;;;4992147;28;19921;-89
2022/10/29 00:27:54;;;;;;;;;;;17.10;82.90;;;;;;4988013;28;19926;-89
2022/10/29 00:30:20;;;;;;;;;;;17.10;83.00;;;;;;4992323;28;19913;-89
2022/10/29 00:32:45;;;;;;;;;;;17.10;83.00;;;;;;4990941;28;20021;-89
2022/10/29 00:35:11;;;;;;;;;;;17.10;83.10;;;;;;4988310;28;19918;-89
2022/10/29 00:37:36;;;;;;;;;;;17.10;83.30;;;;;;4992127;28;20430;-89
2022/10/29 00:40:02;;;;;;;;;;;17.10;83.10;;;;;;4989284;28;19914;-88
2022/10/29 00:42:28;;;;;;;;;;;17.10;83.10;;;;;;4990459;28;19914;-89
2022/10/29 00:44:53;;;;;;;;;;;17.20;83.20;;;;;;4988738;28;19924;-89
2022/10/29 00:47:26;;;;;;;;;;;17.20;83.00;;;;;;4989056;28;19921;-89
2022/10/29 00:49:57;;;;;;;;;;;17.20;82.90;;;;;;5013658;28;19912;-89
2022/10/29 00:52:24;;;;;;;;;;;17.10;83.00;;;;;;4990710;28;19929;-89
2022/10/29 00:54:51;;;;;;;;;;;17.20;83.00;;;;;;4995499;28;19913;-89
2022/10/29 00:57:19;;;;;;;;;;;17.10;83.10;;;;;;4994713;28;19992;-89
2022/10/29 00:59:46;;;;;;;;;;;17.10;82.90;;;;;;4987228;28;22232;-89
2022/10/29 01:02:12;;;;;;;;;;;17.10;83.20;;;;;;4987598;28;20381;-89
2022/10/29 01:04:38;;;;;;;;;;;17.20;82.90;;;;;;4987585;28;20089;-89
2022/10/29 01:07:03;;;;;;;;;;;17.10;83.00;;;;;;4996212;28;19922;-89
2022/10/29 01:09:29;;;;;;;;;;;17.20;83.00;;;;;;4988049;28;20397;-90
2022/10/29 01:12:21;;;;;;;;;;;17.10;83.30;;;;;;4992926;28;20008;-90
2022/10/29 01:15:01;;;;;;;;;;;17.10;83.30;;;;;;4985225;28;19922;-90
2022/10/29 01:17:27;;;;;;;;;;;17.00;83.20;;;;;;5007240;28;19912;-88
2022/10/29 01:20:07;;;;;;;;;;;17.00;83.10;;;;;;4992475;28;19918;-89
2022/10/29 01:22:38;;;;;;;;;;;16.90;83.20;;;;;;4990039;28;20392;-89
2022/10/29 01:25:36;;;;;;;;;;;16.90;83.40;;;;;;4989428;28;19993;-89
2022/10/29 01:28:14;;;;;;;;;;;16.80;83.40;;;;;;4985965;28;20016;-89
2022/10/29 01:30:45;;;;;;;;;;;16.90;83.60;;;;;;4990371;28;20430;-88
2022/10/29 01:33:13;;;;;;;;;;;16.80;83.50;;;;;;4989861;28;19964;-89
2022/10/29 01:35:45;;;;;;;;;;;16.90;83.70;;;;;;4987373;28;19918;-89
2022/10/29 01:38:32;;;;;;;;;;;16.80;83.90;;;;;;4987344;28;20381;-89
2022/10/29 01:41:12;;;;;;;;;;;16.70;83.70;;;;;;4989061;28;20345;-89
2022/10/29 01:43:51;;;;;;;;;;;16.60;84.20;;;;;;4983917;28;20434;-89
2022/10/29 01:46:22;;;;;;;;;;;16.60;84.30;;;;;;4991375;28;19976;-90
2022/10/29 01:48:50;;;;;;;;;;;16.50;84.20;;;;;;4989363;28;19924;-89
2022/10/29 01:51:19;;;;;;;;;;;16.50;84.30;;;;;;4993100;28;20371;-89
2022/10/29 01:53:44;;;;;;;;;;;16.50;84.40;;;;;;4993801;28;19918;-89
2022/10/29 01:56:10;;;;;;;;;;;16.50;84.20;;;;;;4992984;28;19918;-89
2022/10/29 01:58:48;;;;;;;;;;;16.50;84.30;;;;;;5008283;23;19960;-85
2022/10/29 02:01:38;;;;;;;;;;;16.40;84.30;;;;;;4972107;28;20303;-86
2022/10/29 02:04:33;;;;;;;;;;;16.40;84.50;;;;;;4973968;28;19937;-86
2022/10/29 02:07:04;;;;;;;;;;;16.40;84.70;;;;;;4981494;28;20380;-86
2022/10/29 02:09:51;;;;;;;;;;;16.50;84.70;;;;;;4998425;28;19921;-85
2022/10/29 02:12:29;;;;;;;;;;;16.40;84.80;;;;;;4996211;28;19919;-86
2022/10/29 02:15:18;;;;;;;;;;;16.50;84.60;;;;;;4971599;28;19914;-85
2022/10/29 02:17:43;;;;;;;;;;;16.40;84.80;;;;;;4968400;28;19914;-86
2022/10/29 02:20:10;;;;;;;;;;;16.40;84.80;;;;;;4971094;28;20004;-86
2022/10/29 02:22:36;;;;;;;;;;;16.40;84.80;;;;;;4973388;28;19914;-86
2022/10/29 02:25:17;;;;;;;;;;;16.40;85.10;;;;;;4974257;28;19970;-87
2022/10/29 02:28:01;;;;;;;;;;;;;;;;;;;;;
2022/10/29 02:30:50;;;;;;;;;;;16.40;85.10;;;;;;4978360;28;19920;-86
2022/10/29 02:33:20;;;;;;;;;;;16.30;84.90;;;;;;4993743;28;19914;-86
2022/10/29 02:35:57;;;;;;;;;;;16.30;85.00;;;;;;4997934;28;19906;-85
2022/10/29 02:38:41;;;;;;;;;;;16.30;85.20;;;;;;4989959;28;19969;-86
2022/10/29 02:44:48;;;;;;;;;;;16.30;85.20;;;;;;4974178;28;20284;-86
2022/10/29 02:47:28;;;;;;;;;;;16.30;84.70;;;;;;4986501;28;19960;-87
2022/10/29 02:49:54;;;;;;;;;;;16.10;85.10;;;;;;4978850;23;19934;-80
2022/10/29 02:52:19;;;;;;;;;;;16.10;85.50;;;;;;4968666;28;19915;-80
2022/10/29 02:54:45;;;;;;;;;;;16.10;85.40;;;;;;4967613;28;19946;-80
2022/10/29 02:57:10;;;;;;;;;;;16.00;85.40;;;;;;4963908;28;19947;-80
2022/10/29 02:59:36;;;;;;;;;;;16.00;85.30;;;;;;4962866;28;19919;-79
2022/10/29 03:02:01;;;;;;;;;;;16.00;85.50;;;;;;4959746;28;19915;-81
2022/10/29 03:04:27;;;;;;;;;;;15.90;85.50;;;;;;4959520;28;19926;-81
2022/10/29 03:06:52;;;;;;;;;;;15.80;85.40;;;;;;4963080;28;19926;-81
2022/10/29 03:09:18;;;;;;;;;;;15.80;85.40;;;;;;4970163;28;19950;-82
2022/10/29 03:11:43;;;;;;;;;;;15.80;85.60;;;;;;4961131;28;20363;-82
2022/10/29 03:14:09;;;;;;;;;;;15.80;85.60;;;;;;4960012;28;19914;-82
2022/10/29 03:16:34;;;;;;;;;;;15.80;85.30;;;;;;4959860;28;19971;-82
2022/10/29 03:19:00;;;;;;;;;;;15.70;85.80;;;;;;4967465;28;19899;-82
2022/10/29 03:21:25;;;;;;;;;;;15.70;85.90;;;;;;4968427;28;19971;-82
2022/10/29 03:23:51;;;;;;;;;;;15.70;85.90;;;;;;4964196;28;19921;-82
2022/10/29 03:26:16;;;;;;;;;;;15.70;86.00;;;;;;4959372;28;19914;-82
2022/10/29 03:28:42;;;;;;;;;;;15.70;85.90;;;;;;4962194;28;19919;-82
2022/10/29 03:31:07;;;;;;;;;;;15.70;85.80;;;;;;4958350;28;19922;-83
2022/10/29 03:33:34;;;;;;;;;;;15.70;85.50;;;;;;4957559;28;20444;-82
2022/10/29 03:36:00;;;;;;;;;;;15.60;85.60;;;;;;4960059;28;19915;-82
2022/10/29 03:38:26;;;;;;;;;;;15.60;85.40;;;;;;4961133;28;20317;-82
2022/10/29 03:40:51;;;;;;;;;;;15.50;85.60;;;;;;4956019;28;20006;-82
2022/10/29 03:43:17;;;;;;;;;;;15.50;85.80;;;;;;4963131;28;19921;-82
2022/10/29 03:45:43;;;;;;;;;;;15.50;86.20;;;;;;4955219;28;19919;-82
2022/10/29 03:48:08;;;;;;;;;;;15.50;85.90;;;;;;4969015;28;19925;-81
2022/10/29 03:50:34;;;;;;;;;;;15.60;86.10;;;;;;4949707;28;19941;-81
2022/10/29 03:52:59;;;;;;;;;;;15.50;86.20;;;;;;4959201;28;19946;-82
2022/10/29 03:55:27;;;;;;;;;;;15.60;85.90;;;;;;4954947;28;19957;-82
2022/10/29 03:57:53;;;;;;;;;;;15.60;85.80;;;;;;4960095;28;20005;-82
2022/10/29 04:00:19;;;;;;;;;;;15.60;85.50;;;;;;4954911;28;19949;-82
2022/10/29 04:02:44;;;;;;;;;;;15.70;85.60;;;;;;4964710;28;19918;-82
2022/10/29 04:05:10;;;;;;;;;;;15.60;85.70;;;;;;4961802;28;19938;-81
2022/10/29 04:07:35;;;;;;;;;;;15.60;85.80;;;;;;4959537;28;19919;-82
2022/10/29 04:10:01;;;;;;;;;;;15.60;85.70;;;;;;4958743;28;19914;-81
2022/10/29 04:12:26;;;;;;;;;;;15.60;86.20;;;;;;4955519;28;20421;-82
2022/10/29 04:14:52;;;;;;;;;;;15.60;86.00;;;;;;4957460;28;19929;-81
2022/10/29 04:17:17;;;;;;;;;;;15.70;85.90;;;;;;4957228;28;20318;-81
2022/10/29 04:19:43;;;;;;;;;;;15.70;86.00;;;;;;4959169;28;19926;-81
2022/10/29 04:22:08;;;;;;;;;;;15.70;86.10;;;;;;4955526;28;20548;-81
2022/10/29 04:24:34;;;;;;;;;;;15.70;86.20;;;;;;4958618;28;20271;-81
2022/10/29 04:26:59;;;;;;;;;;;15.80;86.20;;;;;;4952774;28;19919;-82
2022/10/29 04:29:25;;;;;;;;;;;15.80;86.10;;;;;;4948412;28;19950;-81
2022/10/29 04:31:50;;;;;;;;;;;15.80;86.00;;;;;;4955551;28;19914;-82
2022/10/29 04:34:15;;;;;;;;;;;15.70;85.60;;;;;;4959358;28;19914;-82
2022/10/29 04:36:41;;;;;;;;;;;15.50;85.50;;;;;;4959016;28;20528;-82
2022/10/29 04:39:07;;;;;;;;;;;15.60;86.00;;;;;;4963679;28;19922;-82
2022/10/29 04:41:32;;;;;;;;;;;15.60;85.70;;;;;;4963368;28;19954;-82
2022/10/29 04:43:58;;;;;;;;;;;15.50;85.60;;;;;;4973976;28;19914;-82
2022/10/29 04:46:23;;;;;;;;;;;15.50;85.60;;;;;;4964504;28;19914;-81
2022/10/29 04:48:48;;;;;;;;;;;15.50;85.40;;;;;;4964133;28;19919;-80
2022/10/29 04:51:17;;;;;;;;;;;15.50;85.50;;;;;;4961715;28;19915;-81
2022/10/29 04:53:42;;;;;;;;;;;15.50;85.90;;;;;;4961523;28;19922;-81
2022/10/29 04:56:08;;;;;;;;;;;15.50;85.80;;;;;;4963806;28;19961;-81
2022/10/29 04:58:33;;;;;;;;;;;15.50;85.70;;;;;;4959591;28;19990;-82
2022/10/29 05:01:00;;;;;;;;;;;15.50;85.80;;;;;;4964397;28;19925;-81
2022/10/29 05:03:25;;;;;;;;;;;15.50;85.90;;;;;;4961021;28;19922;-81
2022/10/29 05:05:50;;;;;;;;;;;15.30;85.70;;;;;;4966734;28;19946;-81
2022/10/29 05:08:16;;;;;;;;;;;15.20;85.60;;;;;;4964931;28;19918;-82
2022/10/29 05:10:42;;;;;;;;;;;15.00;86.20;;;;;;4965081;28;19922;-81
2022/10/29 05:13:11;;;;;;;;;;;15.10;86.70;;;;;;4963347;28;19950;-82
2022/10/29 05:15:36;;;;;;;;;;;15.10;87.10;;;;;;4964211;28;19925;-81
2022/10/29 05:18:02;;;;;;;;;;;15.20;86.90;;;;;;4965970;28;19949;-81
2022/10/29 05:20:28;;;;;;;;;;;15.30;86.50;;;;;;4964465;28;19974;-82
2022/10/29 05:22:57;;;;;;;;;;;15.30;86.30;;;;;;4961443;28;19914;-81
2022/10/29 05:25:23;;;;;;;;;;;15.20;86.20;;;;;;4963829;28;19919;-81
2022/10/29 05:27:48;;;;;;;;;;;15.30;86.40;;;;;;4967282;28;19981;-81
2022/10/29 05:30:13;;;;;;;;;;;15.40;86.50;;;;;;4959507;28;21083;-81
2022/10/29 05:32:39;;;;;;;;;;;15.50;86.30;;;;;;4963328;28;19993;-81
2022/10/29 05:35:05;;;;;;;;;;;15.50;86.40;;;;;;4960466;28;19915;-81
2022/10/29 05:37:30;;;;;;;;;;;15.50;86.30;;;;;;4959890;28;19918;-81
2022/10/29 05:39:55;;;;;;;;;;;15.60;86.30;;;;;;4958465;28;19915;-81
2022/10/29 05:42:21;;;;;;;;;;;15.50;86.50;;;;;;4955640;28;19915;-80
2022/10/29 05:44:46;;;;;;;;;;;15.60;86.40;;;;;;4964061;28;19910;-81
2022/10/29 05:47:12;;;;;;;;;;;15.60;86.00;;;;;;4956483;28;19929;-81
2022/10/29 05:49:37;;;;;;;;;;;15.60;86.20;;;;;;4970973;28;19922;-81
2022/10/29 05:52:03;;;;;;;;;;;15.60;86.30;;;;;;4954854;28;19923;-81
2022/10/29 05:54:28;;;;;;;;;;;15.60;86.00;;;;;;4956368;28;20382;-80
2022/10/29 05:56:54;;;;;;;;;;;15.50;86.20;;;;;;4957542;28;19915;-81
2022/10/29 05:59:19;;;;;;;;;;;15.50;86.60;;;;;;4958052;28;19984;-81
2022/10/29 06:01:45;;;;;;;;;;;15.50;86.50;;;;;;4952648;28;19918;-81
2022/10/29 06:04:10;;;;;;;;;;;15.30;86.20;;;;;;4958278;28;19918;-81
2022/10/29 06:06:36;;;;;;;;;;;15.10;86.40;;;;;;4955616;28;19989;-81
2022/10/29 06:09:02;;;;;;;;;;;15.20;86.70;;;;;;4957465;28;19974;-80
2022/10/29 06:11:27;;;;;;;;;;;15.20;86.60;;;;;;4954535;28;19948;-81
2022/10/29 06:13:56;;;;;;;;;;;15.30;86.60;;;;;;4954217;28;20452;-81
2022/10/29 06:16:21;;;;;;;;;;;15.20;86.70;;;;;;4950102;28;19921;-82
2022/10/29 06:18:47;;;;;;;;;;;15.30;87.00;;;;;;4948054;28;20009;-81
2022/10/29 06:21:12;;;;;;;;;;;15.30;86.80;;;;;;4949082;28;20177;-81
2022/10/29 06:23:38;;;;;;;;;;;15.40;86.80;;;;;;4954669;28;20393;-81
2022/10/29 06:26:03;;;;;;;;;;;15.40;87.00;;;;;;4955439;28;19914;-81
2022/10/29 06:28:29;;;;;;;;;;;15.40;86.90;;;;;;4957170;28;19918;-80
2022/10/29 06:30:54;;;;;;;;;;;15.50;86.90;;;;;;4960115;28;19942;-81
2022/10/29 06:33:20;;;;;;;;;;;15.50;86.60;;;;;;4955289;28;19921;-81
2022/10/29 06:35:46;;;;;;;;;;;15.50;86.90;;;;;;4959566;28;20409;-81
2022/10/29 06:38:12;;;;;;;;;;;15.40;87.00;;;;;;4961484;28;19914;-81
2022/10/29 06:40:37;;;;;;;;;;;15.40;86.60;;;;;;4961212;28;20502;-80
2022/10/29 06:43:04;;;;;;;;;;;15.40;86.70;;;;;;4956067;28;19923;-81
2022/10/29 06:45:30;;;;;;;;;;;15.50;86.80;;;;;;4958635;28;19921;-80
2022/10/29 06:47:56;;;;;;;;;;;15.50;86.60;;;;;;4959404;28;19919;-80
2022/10/29 06:50:22;;;;;;;;;;;15.50;86.80;;;;;;4957382;28;20350;-81
2022/10/29 06:52:57;;;;;;;;;;;15.60;86.50;;;;;;4956818;28;20014;-81
2022/10/29 06:55:23;;;;;;;;;;;15.60;86.70;;;;;;4955636;28;19966;-81
2022/10/29 06:57:56;;;;;;;;;;;15.70;86.60;;;;;;4960520;28;20294;-81
2022/10/29 07:00:21;;;;;;;;;;;15.70;86.60;;;;;;4963554;28;19911;-81
2022/10/29 07:02:47;;;;;;;;;;;15.80;86.60;;;;;;4956710;28;20373;-81
2022/10/29 07:05:12;;;;;;;;;;;15.60;86.20;;;;;;4963473;28;19926;-81
2022/10/29 07:07:37;;;;;;;;;;;15.60;86.30;;;;;;4957079;28;19922;-80
2022/10/29 07:10:03;;;;;;;;;;;15.60;86.30;;;;;;4966833;28;20006;-80
2022/10/29 07:12:28;;;;;;;;;;;15.60;86.40;;;;;;4962335;28;19915;-80
2022/10/29 07:14:54;;;;;;;;;;;15.60;86.40;;;;;;4959885;28;20506;-81
2022/10/29 07:17:19;;;;;;;;;;;15.60;86.50;;;;;;4958233;28;19928;-80
2022/10/29 07:19:45;;;;;;;;;;;15.70;86.60;;;;;;4959652;28;19921;-80
2022/10/29 07:22:10;;;;;;;;;;;15.70;86.60;;;;;;4958400;28;19925;-80
2022/10/29 07:24:36;;;;;;;;;;;15.80;86.40;;;;;;4958049;28;19919;-79
2022/10/29 07:27:01;;;;;;;;;;;15.80;86.60;;;;;;4954430;28;20477;-80
2022/10/29 07:29:27;;;;;;;;;;;15.90;86.70;;;;;;4956481;28;21850;-80
2022/10/29 07:31:52;;;;;;;;;;;16.00;86.20;;;;;;4959792;28;19914;-81
2022/10/29 07:34:17;;;;;;;;;;;16.00;86.20;;;;;;4957527;28;19950;-78
2022/10/29 07:36:43;;;;;;;;;;;16.00;86.40;;;;;;4963144;28;19918;-78
2022/10/29 07:39:08;;;;;;;;;;;16.10;86.30;;;;;;4957354;28;19922;-77
2022/10/29 07:41:34;;;;;;;;;;;16.00;86.00;;;;;;4953785;28;20022;-78
2022/10/29 07:43:59;;;;;;;;;;;15.90;86.00;;;;;;4955127;28;19974;-78
2022/10/29 07:46:25;;;;;;;;;;;15.70;86.40;;;;;;4954256;28;19922;-78
2022/10/29 07:48:50;;;;;;;;;;;15.80;86.40;;;;;;4944654;28;20353;-78
2022/10/29 07:51:16;;;;;;;;;;;15.90;86.50;;;;;;4956895;28;19945;-78
2022/10/29 07:53:41;;;;;;;;;;;16.00;86.50;;;;;;4959688;28;19919;-78
2022/10/29 07:56:07;;;;;;;;;;;16.10;86.10;;;;;;4951147;28;19915;-78
2022/10/29 07:58:32;;;;;;;;;;;16.20;85.90;;;;;;4956351;28;19971;-78
2022/10/29 08:00:58;;;;;;;;;;;16.20;85.80;;;;;;4996573;23;19985;-80
2022/10/29 08:03:24;;;;;;;;;;;16.10;85.80;;;;;;4985146;28;19924;-81
2022/10/29 08:05:49;;;;;;;;;;;16.20;85.90;;;;;;4994947;28;19910;-82
2022/10/29 08:08:16;;;;;;;;;;;16.20;85.90;;;;;;4993967;28;19918;-82
2022/10/29 08:10:42;;;;;;;;;;;16.20;86.10;;;;;;4997935;28;19945;-82
2022/10/29 08:13:07;;;;;;;;;;;16.30;86.10;;;;;;4993837;28;19916;-82
2022/10/29 08:15:33;;;;;;;;;;;16.40;86.20;;;;;;4997050;28;20381;-82
2022/10/29 08:17:59;;;;;;;;;;;16.50;86.40;;;;;;4993608;28;19917;-91
2022/10/29 08:20:26;;;;;;;;;;;16.50;86.30;;;;;;4992858;28;19922;-85
2022/10/29 08:22:51;;;;;;;;;;;16.50;86.30;;;;;;5001749;28;19918;-84
2022/10/29 08:25:17;;;;;;;;;;;16.50;86.30;;;;;;4994878;28;19917;-86
2022/10/29 08:27:43;;;;;;;;;;;16.50;86.60;;;;;;4990951;28;20309;-82
2022/10/29 08:30:09;;;;;;;;;;;16.60;86.60;;;;;;5013248;28;19920;-83
2022/10/29 08:32:34;;;;;;;;;;;16.60;86.60;;;;;;5001293;28;19914;-82
2022/10/29 08:35:00;;;;;;;;;;;16.60;86.60;;;;;;4991347;28;19961;-81
2022/10/29 08:37:26;;;;;;;;;;;16.60;86.70;;;;;;4989317;28;19910;-82
2022/10/29 08:39:51;;;;;;;;;;;16.70;86.80;;;;;;4988892;28;19945;-81
2022/10/29 08:42:17;;;;;;;;;;;16.80;86.90;;;;;;4993443;28;19910;-80
2022/10/29 08:45:01;;;;;;;;;;;16.80;87.00;;;;;;4997751;28;19921;-80
2022/10/29 08:47:26;;;;;;;;;;;16.80;87.30;;;;;;4994473;28;19918;-81
2022/10/29 08:50:04;;;;;;;;;;;17.00;87.30;;;;;;4992644;28;21460;-80
2022/10/29 08:52:39;;;;;;;;;;;17.00;87.30;;;;;;4992107;28;19924;-81
2022/10/29 08:55:06;;;;;;;;;;;17.10;87.40;;;;;;4990735;28;19941;-81
2022/10/29 08:57:34;;;;;;;;;;;17.20;86.60;;;;;;4991650;28;19914;-81
2022/10/29 09:00:03;;;;;;;;;;;17.30;85.60;;;;;;4994671;28;20012;-81
2022/10/29 09:02:29;;;;;;;;;;;17.40;84.50;;;;;;4995568;28;19920;-81
2022/10/29 09:04:54;;;;;;;;;;;17.40;83.80;;;;;;4991035;28;19949;-81
2022/10/29 09:07:52;;;;;;;;;;;17.50;83.50;;;;;;4991229;28;19917;-81
2022/10/29 09:10:18;;;;;;;;;;;17.60;83.60;;;;;;4975112;28;19921;-81
2022/10/29 09:12:51;;;;;;;;;;;17.70;82.70;;;;;;4994556;28;19918;-82
2022/10/29 09:15:24;;;;;;;;;;;18.00;82.40;;;;;;4982181;28;19988;-82
2022/10/29 09:18:09;;;;;;;;;;;18.20;81.80;;;;;;4994262;28;19937;-82
2022/10/29 09:20:43;;;;;;;;;;;18.40;80.10;;;;;;4994783;28;19968;-83
2022/10/29 09:23:15;;;;;;;;;;;18.70;79.20;;;;;;4990993;28;19914;-81
2022/10/29 09:25:46;;;;;;;;;;;18.90;78.10;;;;;;4991259;28;19913;-82
2022/10/29 09:28:38;;;;;;;;;;;18.80;78.50;;;;;;4983940;28;19918;-81
2022/10/29 09:31:16;;;;;;;;;;;19.00;78.60;;;;;;4990051;28;19914;-80
2022/10/29 09:33:43;;;;;;;;;;;18.90;78.00;;;;;;4989092;28;19914;-80
2022/10/29 09:36:14;;;;;;;;;;;19.00;77.10;;;;;;4993798;28;20404;-79
2022/10/29 09:38:43;;;;;;;;;;;19.10;76.30;;;;;;4988625;28;19914;-79
2022/10/29 09:41:10;;;;;;;;;;;19.20;75.70;;;;;;4994285;28;19910;-79
2022/10/29 09:43:35;;;;;;;;;;;19.30;76.20;;;;;;4984868;28;19914;-80
2022/10/29 09:46:19;;;;;;;;;;;19.40;74.90;;;;;;4996181;28;19916;-80
2022/10/29 09:48:53;;;;;;;;;;;19.60;74.10;;;;;;4991402;28;19918;-81
2022/10/29 09:51:57;;;;;;;;;;;19.70;74.10;;;;;;4990972;28;20391;-81
2022/10/29 09:54:24;;;;;;;;;;;19.80;72.70;;;;;;4980943;28;19926;-83
2022/10/29 09:56:50;;;;;;;;;;;19.90;72.50;;;;;;4990065;28;19918;-82
2022/10/29 09:59:25;;;;;;;;;;;19.80;72.60;;;;;;4989761;28;19937;-82
2022/10/29 10:01:51;;;;;;;;;;;19.90;71.80;;;;;;4992250;28;19914;-83
2022/10/29 10:04:27;;;;;;;;;;;19.90;72.00;;;;;;4993798;28;19921;-83
2022/10/29 10:07:09;;;;;;;;;;;19.90;71.90;;;;;;4998909;28;19914;-82
2022/10/29 10:09:53;;;;;;;;;;;19.90;71.90;;;;;;4988871;28;19914;-83
2022/10/29 10:12:20;;;;;;;;;;;20.00;71.60;;;;;;4998982;28;20436;-83
2022/10/29 10:14:47;;;;;;;;;;;20.10;71.00;;;;;;4996451;28;19921;-82
2022/10/29 10:17:12;;;;;;;;;;;20.10;70.70;;;;;;4997880;28;19910;-83
2022/10/29 10:19:45;;;;;;;;;;;20.10;70.40;;;;;;4994301;28;19921;-83
2022/10/29 10:22:18;;;;;;;;;;;20.00;70.40;;;;;;4990438;28;19918;-82
2022/10/29 10:24:44;;;;;;;;;;;20.00;70.60;;;;;;4992005;28;20405;-83
2022/10/29 10:27:18;;;;;;;;;;;20.10;70.60;;;;;;4990510;28;19989;-84
2022/10/29 10:30:04;;;;;;;;;;;20.00;71.30;;;;;;4991779;28;19963;-83
2022/10/29 10:32:29;;;;;;;;;;;19.90;71.70;;;;;;4995399;28;19913;-84
2022/10/29 10:34:55;;;;;;;;;;;20.00;71.20;;;;;;4991277;28;19948;-84
2022/10/29 10:37:20;;;;;;;;;;;19.80;71.80;;;;;;4996264;28;20349;-83
2022/10/29 10:39:48;;;;;;;;;;;19.80;72.10;;;;;;4992669;28;19914;-83
2022/10/29 10:42:28;;;;;;;;;;;19.80;71.50;;;;;;4989349;28;19917;-83
2022/10/29 10:45:02;;;;;;;;;;;19.90;71.10;;;;;;4994166;28;19921;-84
2022/10/29 10:47:29;;;;;;;;;;;20.00;71.40;;;;;;4990807;28;19976;-83
2022/10/29 10:50:09;;;;;;;;;;;20.00;71.80;;;;;;4989703;28;19922;-83
2022/10/29 10:52:34;;;;;;;;;;;20.00;71.90;;;;;;4985397;28;20808;-83
2022/10/29 10:55:03;;;;;;;;;;;20.00;72.80;;;;;;4994093;28;19949;-84
2022/10/29 10:57:31;;;;;;;;;;;20.10;72.10;;;;;;4988822;28;20004;-83
2022/10/29 11:00:05;;;;;;;;;;;20.10;72.10;;;;;;4993828;28;19922;-86
2022/10/29 11:02:34;;;;;;;;;;;20.20;72.00;;;;;;4985773;28;19910;-86
2022/10/29 11:05:06;;;;;;;;;;;20.30;72.20;;;;;;4995331;28;19918;-84
2022/10/29 11:07:33;;;;;;;;;;;20.50;72.00;;;;;;4985179;28;19961;-84
2022/10/29 11:10:01;;;;;;;;;;;20.50;71.80;;;;;;4995332;28;19921;-84
2022/10/29 11:12:32;;;;;;;;;;;20.50;72.50;;;;;;4984438;28;20429;-86
2022/10/29 11:15:12;;;;;;;;;;;20.40;71.30;;;;;;4990091;28;19914;-84
2022/10/29 11:17:40;;;;;;;;;;;20.40;71.10;;;;;;4987880;28;19913;-85
2022/10/29 11:20:19;;;;;;;;;;;20.40;71.80;;;;;;4987321;28;19914;-85
2022/10/29 11:22:54;;;;;;;;;;;20.40;72.20;;;;;;4991509;28;19914;-84
2022/10/29 11:25:22;;;;;;;;;;;20.50;72.30;;;;;;4978967;28;19914;-86
2022/10/29 11:27:54;;;;;;;;;;;20.50;72.10;;;;;;4984714;28;19933;-86
2022/10/29 11:30:20;;;;;;;;;;;20.70;70.20;;;;;;4996016;28;19920;-83
2022/10/29 11:32:51;;;;;;;;;;;20.90;70.60;;;;;;4990675;28;19921;-79
2022/10/29 11:35:37;;;;;;;;;;;21.10;68.30;;;;;;4994759;28;20005;-80
2022/10/29 11:38:17;;;;;;;;;;;21.10;67.90;;;;;;4986981;28;19921;-79
2022/10/29 11:40:51;;;;;;;;;;;21.20;67.40;;;;;;4986056;28;19925;-80
2022/10/29 11:43:18;;;;;;;;;;;21.30;66.30;;;;;;4990171;28;19968;-79
2022/10/29 11:46:02;;;;;;;;;;;21.20;67.00;;;;;;4990613;28;19955;-79
2022/10/29 11:48:49;;;;;;;;;;;21.30;65.20;;;;;;4990959;28;19914;-79
2022/10/29 11:51:15;;;;;;;;;;;21.50;65.00;;;;;;4988401;28;19922;-82
2022/10/29 11:53:52;;;;;;;;;;;21.60;65.10;;;;;;4991336;28;19914;-81
2022/10/29 11:56:36;;;;;;;;;;;21.60;64.10;;;;;;4992401;28;19921;-82
2022/10/29 11:59:20;;;;;;;;;;;21.70;64.10;;;;;;4995199;28;19909;-81
2022/10/29 12:01:56;;;;;;;;;;;21.60;64.60;;;;;;4992244;28;19997;-81
2022/10/29 12:04:39;;;;;;;;;;;21.50;65.80;;;;;;4994975;28;20433;-80
2022/10/29 12:07:13;;;;;;;;;;;21.40;65.80;;;;;;4993271;28;19917;-78
2022/10/29 12:09:48;;;;;;;;;;;21.40;65.30;;;;;;4982236;28;19918;-78
2022/10/29 12:12:16;;;;;;;;;;;21.30;64.90;;;;;;4987621;28;19924;-81
2022/10/29 12:14:44;;;;;;;;;;;21.30;65.90;;;;;;4989084;28;19937;-80
2022/10/29 12:17:17;;;;;;;;;;;21.20;67.00;;;;;;4993584;28;20008;-81
2022/10/29 12:19:53;;;;;;;;;;;21.20;66.30;;;;;;4992238;28;20409;-79
2022/10/29 12:22:27;;;;;;;;;;;21.30;66.10;;;;;;4981183;28;19922;-85
2022/10/29 12:24:58;;;;;;;;;;;21.30;66.40;;;;;;4989810;28;19929;-86
2022/10/29 12:27:56;;;;;;;;;;;21.40;66.00;;;;;;4986472;28;19932;-83
2022/10/29 12:30:22;;;;;;;;;;;21.30;67.00;;;;;;4972638;28;19949;-83
2022/10/29 12:32:51;;;;;;;;;;;21.20;66.90;;;;;;4991954;28;19917;-80
2022/10/29 12:35:16;;;;;;;;;;;21.10;66.60;;;;;;4997598;28;20650;-79
2022/10/29 12:37:47;;;;;;;;;;;21.20;66.60;;;;;;4986244;28;20075;-80
2022/10/29 12:40:18;;;;;;;;;;;21.10;67.70;;;;;;4990411;28;20377;-81
2022/10/29 12:42:44;;;;;;;;;;;21.10;67.80;;;;;;4988129;28;19933;-77
2022/10/29 12:45:22;;;;;;;;;;;21.10;67.90;;;;;;4989421;28;19913;-78
2022/10/29 12:47:47;;;;;;;;;;;21.10;68.30;;;;;;4986017;28;19925;-79
2022/10/29 12:50:15;;;;;;;;;;;21.20;68.30;;;;;;4981778;28;19941;-78
2022/10/29 12:52:41;;;;;;;;;;;21.30;68.80;;;;;;4989700;28;19933;-78
2022/10/29 12:55:11;;;;;;;;;;;21.40;68.20;;;;;;4998617;28;19914;-78
2022/10/29 12:57:36;;;;;;;;;;;21.50;67.90;;;;;;4988515;28;20436;-78
2022/10/29 13:00:20;;;;;;;;;;;21.40;67.90;;;;;;4993457;28;19922;-79
2022/10/29 13:02:46;;;;;;;;;;;21.40;68.40;;;;;;4991586;28;19914;-78
2022/10/29 13:05:12;;;;;;;;;;;21.40;66.70;;;;;;4991978;28;19910;-78
2022/10/29 13:07:44;;;;;;;;;;;21.50;66.70;;;;;;4988722;28;19917;-78
2022/10/29 13:10:25;;;;;;;;;;;21.50;66.70;;;;;;4993964;28;20392;-77
2022/10/29 13:12:54;;;;;;;;;;;21.50;66.50;;;;;;4997538;28;19937;-77
2022/10/29 13:15:20;;;;;;;;;;;21.60;66.30;;;;;;4992243;28;19915;-77
2022/10/29 13:17:46;;;;;;;;;;;21.60;66.00;;;;;;4990337;28;19932;-78
2022/10/29 13:20:21;;;;;;;;;;;21.60;65.30;;;;;;4992573;28;19921;-78
2022/10/29 13:22:46;;;;;;;;;;;21.90;64.60;;;;;;4979867;28;20426;-78
2022/10/29 13:25:26;;;;;;;;;;;22.10;64.90;;;;;;4992221;28;19992;-77
2022/10/29 13:27:52;;;;;;;;;;;22.10;64.30;;;;;;4991789;28;19918;-77
2022/10/29 13:30:21;;;;;;;;;;;22.00;63.90;;;;;;4987222;28;19980;-77
2022/10/29 13:32:46;;;;;;;;;;;22.10;63.70;;;;;;4986726;28;19913;-77
2022/10/29 13:35:15;;;;;;;;;;;22.10;63.00;;;;;;4994780;28;19928;-77
2022/10/29 13:37:48;;;;;;;;;;;22.10;62.50;;;;;;4984481;28;19937;-76
2022/10/29 13:40:22;;;;;;;;;;;22.10;62.80;;;;;;4987869;28;19921;-77
2022/10/29 13:42:53;;;;;;;;;;;22.30;62.10;;;;;;4991730;28;19913;-77
2022/10/29 13:45:18;;;;;;;;;;;22.20;62.20;;;;;;4994121;28;19913;-77
2022/10/29 13:47:44;;;;;;;;;;;22.10;63.70;;;;;;4992454;28;20412;-76
2022/10/29 13:50:13;;;;;;;;;;;22.00;63.80;;;;;;4995251;28;20371;-76
2022/10/29 13:52:39;;;;;;;;;;;21.90;64.80;;;;;;4992700;28;19920;-76
2022/10/29 13:55:06;;;;;;;;;;;22.00;64.80;;;;;;4995280;28;19936;-77
2022/10/29 13:57:33;;;;;;;;;;;22.00;64.30;;;;;;4996284;28;20370;-77
2022/10/29 14:00:04;;;;;;;;;;;22.00;63.60;;;;;;5008399;23;20339;-84
2022/10/29 14:02:38;;;;;;;;;;;22.00;65.30;;;;;;4975155;28;19914;-86
2022/10/29 14:05:09;;;;;;;;;;;21.80;65.50;;;;;;4977312;28;19919;-85
2022/10/29 14:07:50;;;;;;;;;;;21.70;65.20;;;;;;4976234;28;19926;-85
2022/10/29 14:10:17;;;;;;;;;;;21.70;68.30;;;;;;4966625;28;19922;-86
2022/10/29 14:12:45;;;;;;;;;;;21.50;67.90;;;;;;4952301;28;19962;-85
2022/10/29 14:15:12;;;;;;;;;;;21.50;67.00;;;;;;4951967;28;20360;-85
2022/10/29 14:17:38;;;;;;;;;;;21.40;66.00;;;;;;4956872;28;19932;-85
2022/10/29 14:20:04;;;;;;;;;;;21.40;66.20;;;;;;4951162;28;19921;-86
2022/10/29 14:22:41;;;;;;;;;;;21.50;65.90;;;;;;4955346;28;19914;-87
2022/10/29 14:25:39;;;;;;;;;;;21.40;66.70;;;;;;4961480;28;20635;-84
2022/10/29 14:28:18;;;;;;;;;;;21.30;67.50;;;;;;4954797;28;19969;-83
2022/10/29 14:30:45;;;;;;;;;;;21.20;67.00;;;;;;4953405;28;19910;-83
2022/10/29 14:33:22;;;;;;;;;;;21.30;66.80;;;;;;4953810;28;19915;-85
2022/10/29 14:35:48;;;;;;;;;;;21.50;66.20;;;;;;4950996;28;19917;-83
2022/10/29 14:38:14;;;;;;;;;;;21.60;66.30;;;;;;4955512;28;19915;-85